Cacapava do Sul, Brazil
Current Conditions -  °F | °C
As of 9:00 PM on Tuesday 27 Jan 2015 (Local Time) from SBSM Reporting Station
Thunderstorm Thunderstorm  
Wind Chill: 77°   Ceiling: 3000
Heat Index: 78°   Visibility: 6mi
Dew Point: 72°   Wind: 5mph
Humidity: 83%   Direction: 350°N
Pressure: 29.83"   Gusts: NA
Location:  30.51°S, 53.49°W
Report Text: SBSM 272300Z 35004KT 9999 VCTS VCSH BKN030 FEW040CB BKN100 25/22 Q1010
Loading
Personal Weather Stations






























Interactive Weather Map New forecast layout! Learn more

10-Day Weather Forecast

Advertisements
Track Severe Weather on mobile